Coulee, North Dakota
Current Conditions -  °F | °C
As of 4:55 AM on Friday 31 Oct 2014 (Local Time) from K08D Reporting Station
Scattered Clouds Scattered Clouds  
Wind Chill: 11°   Ceiling: Unl
Heat Index: 23°   Visibility: 10mi
Dew Point: 23°   Wind: 13mph
Humidity: 100%   Direction: 150°SSE
Pressure: 30.44"   Gusts: NA
Location:  48.4598°N, 101.907°W
Report Text: K08D 310955Z AUTO 15011KT 10SM SCT018 M05/M05 A3044 RMK AO2
Loading
Personal Weather Stations






























Interactive Weather Map New forecast layout! Learn more

10-Day Weather Forecast

Advertisements
Track Severe Weather on mobile